Strona główna
METAR-TAF:

METAR-TAF

Lotnisko :

Normanton, Australia

Szerokość geograficzna: 17-41-06S, Długość geograficzna: 141-04-12E, wysokość: 22 m

Aktualna obserwacja pogody

Raport powstał 39 minut temu, godzina 03:00 UTC
Wiatr 5 kt od południowy zachód, zmienny między południe i północny zachód
Temperatura 36°C
Wilgotność 24%
Ciśnienie 1009 hPa
Widzialność 10 km lub więcej

METAR: YNTN 100300Z AUTO 23005KT 170V310 9999 // NCD 36/12 Q1009

czas: 13:39 (03:39 UTC)


TAF: brakujący

Obserwacja i prognoza pogody dla ponad 4000 lotnisk (raport METAR i TAF).

Dostępne stacje oznaczono żółtymi i czerwonymi punktami na mapie.

Najedź kursorem aby zobaczyć nazwę stacji.

Kliknij aby zobaczyć obserwacje i prognozy pogody.

Aby zmienić mapę: kliknij na zielony przycisk z czarnym krzyżykiem, aby powiększyć; na zielony przycisk z myślnikiem, aby pomniejszyć; na zielone strzałki, aby przejść do map sąsiednich.


METAR-TAF: